Time;durP1;ratioP1;P1;durP2;ratioP2;P2;SDS_P1;SDS_P2;PMS_P1;PMS_P2;Temp;Humidity;BMP_temperature;BMP_pressure;BME280_temperature;BME280_humidity;BME280_pressure;Samples;Min_cycle;Max_cycle;Signal;HPM_P1;HPM_P2
2023/10/13 00:00:33;;;;;;;9.10;3.10;;;16.90;99.90;;;;;;1944901;74;21627;-82
2023/10/13 00:03:23;;;;;;;6.58;3.30;;;16.80;99.90;;;;;;1945001;74;21089;-81
2023/10/13 00:06:15;;;;;;;7.22;3.42;;;16.80;99.90;;;;;;1945013;74;21117;-82
2023/10/13 00:09:14;;;;;;;6.05;3.40;;;16.70;99.90;;;;;;1944659;74;21128;-81
2023/10/13 00:12:01;;;;;;;5.53;2.95;;;16.80;99.90;;;;;;1944830;74;21176;-82
2023/10/13 00:14:53;;;;;;;7.03;3.45;;;16.60;99.90;;;;;;1944690;74;21160;-81
2023/10/13 00:17:45;;;;;;;7.12;3.30;;;16.50;99.90;;;;;;1944812;74;21059;-81
2023/10/13 00:20:37;;;;;;;7.03;3.40;;;16.60;99.90;;;;;;1944644;74;21095;-81
2023/10/13 00:23:32;;;;;;;4.85;2.75;;;16.60;99.90;;;;;;1944807;74;21051;-82
2023/10/13 00:26:27;;;;;;;4.40;3.30;;;16.60;99.90;;;;;;1944843;74;21096;-82
2023/10/13 00:29:28;;;;;;;6.05;3.40;;;16.60;99.90;;;;;;1944458;74;21221;-81
2023/10/13 00:32:12;;;;;;;4.70;2.90;;;16.60;99.90;;;;;;1945028;74;21157;-82
2023/10/13 00:35:05;;;;;;;6.53;2.98;;;16.40;99.90;;;;;;1944977;74;21580;-81
2023/10/13 00:37:57;;;;;;;7.42;3.22;;;16.30;99.90;;;;;;1944968;74;21097;-81
2023/10/13 00:40:52;;;;;;;4.65;2.85;;;16.20;99.90;;;;;;1944856;74;21094;-81
2023/10/13 00:44:04;;;;;;;6.08;3.08;;;16.20;99.90;;;;;;1944919;74;21121;-81
2023/10/13 00:46:58;;;;;;;7.40;3.17;;;16.10;99.90;;;;;;1944978;74;21179;-82
2023/10/13 00:49:50;;;;;;;7.40;3.17;;;16.10;99.90;;;;;;1944927;74;21551;-81
2023/10/13 00:52:46;;;;;;;5.05;3.47;;;16.10;99.90;;;;;;1945197;74;21184;-81
2023/10/13 00:55:41;;;;;;;11.00;3.72;;;16.10;99.90;;;;;;1950096;73;21122;-81
2023/10/13 00:58:31;;;;;;;7.08;3.47;;;16.20;99.90;;;;;;1950303;73;21082;-81
2023/10/13 01:01:22;;;;;;;4.70;3.10;;;16.20;99.90;;;;;;1937353;74;21094;-82
2023/10/13 01:04:14;;;;;;;6.83;3.02;;;16.30;99.90;;;;;;1937362;74;21139;-82
2023/10/13 01:07:07;;;;;;;6.92;3.52;;;16.30;99.90;;;;;;1922174;73;21079;-81
2023/10/13 01:09:59;;;;;;;8.35;3.85;;;16.20;99.90;;;;;;1920239;75;21637;-81
2023/10/13 01:12:52;;;;;;;6.37;3.70;;;16.20;99.90;;;;;;1920313;75;21148;-81
2023/10/13 01:15:46;;;;;;;7.15;3.55;;;16.20;99.90;;;;;;1920352;75;21150;-81
2023/10/13 01:18:48;;;;;;;5.03;2.60;;;16.20;99.90;;;;;;1920269;75;21680;-81
2023/10/13 01:21:33;;;;;;;5.28;2.87;;;16.20;99.90;;;;;;1907609;75;21215;-81
2023/10/13 01:24:24;;;;;;;5.92;2.60;;;16.20;99.90;;;;;;1907029;75;21118;-83
2023/10/13 01:27:19;;;;;;;5.05;2.72;;;16.10;99.90;;;;;;1907430;75;21099;-83
2023/10/13 01:30:22;;;;;;;5.90;2.77;;;16.10;99.90;;;;;;1884478;75;21566;-82
2023/10/13 01:33:08;;;;;;;4.58;2.77;;;16.10;99.90;;;;;;1907458;75;21118;-81
2023/10/13 01:36:06;;;;;;;6.72;3.27;;;16.10;99.90;;;;;;1920517;75;21639;-81
2023/10/13 01:38:55;;;;;;;6.42;3.55;;;16.10;99.90;;;;;;1920451;75;21058;-83
2023/10/13 01:41:55;;;;;;;6.03;3.12;;;16.10;99.90;;;;;;1920245;75;21204;-83
2023/10/13 01:44:40;;;;;;;7.15;3.15;;;16.10;99.90;;;;;;1920456;75;21122;-82
2023/10/13 01:47:32;;;;;;;4.70;3.00;;;16.10;99.90;;;;;;1920444;75;21098;-81
2023/10/13 01:50:29;;;;;;;7.05;3.75;;;16.00;99.90;;;;;;1920211;75;21561;-81
2023/10/13 01:53:22;;;;;;;6.92;3.50;;;16.10;99.90;;;;;;1907743;75;21282;-81
2023/10/13 01:56:14;;;;;;;6.35;3.77;;;16.10;99.90;;;;;;1903993;75;21080;-81
2023/10/13 01:59:09;;;;;;;4.80;3.30;;;16.10;99.90;;;;;;1902830;75;21217;-81
2023/10/13 02:02:01;;;;;;;5.75;3.37;;;16.10;99.90;;;;;;1902844;75;21170;-81
2023/10/13 02:04:55;;;;;;;7.70;3.47;;;16.10;99.90;;;;;;1902876;75;21617;-82
2023/10/13 02:07:46;;;;;;;5.05;3.40;;;16.00;99.90;;;;;;1903808;75;21115;-81
2023/10/13 02:10:43;;;;;;;7.60;3.40;;;15.90;99.90;;;;;;1903673;75;21052;-81
2023/10/13 02:13:41;;;;;;;6.37;3.87;;;15.90;99.90;;;;;;1903916;75;21095;-82
2023/10/13 02:16:27;;;;;;;6.35;3.25;;;15.90;99.90;;;;;;1903977;75;21114;-81
2023/10/13 02:19:19;;;;;;;4.87;3.12;;;15.90;99.90;;;;;;1903596;75;21640;-81
2023/10/13 02:22:11;;;;;;;7.22;3.40;;;15.80;99.90;;;;;;1903602;75;21134;-81
2023/10/13 02:25:05;;;;;;;7.03;2.85;;;15.70;99.90;;;;;;1903414;75;21095;-81
2023/10/13 02:27:58;;;;;;;5.67;3.10;;;15.60;99.90;;;;;;1903690;75;21122;-81
2023/10/13 02:30:50;;;;;;;6.03;3.08;;;15.60;99.90;;;;;;1903927;75;21117;-82
2023/10/13 02:33:45;;;;;;;7.12;3.30;;;15.50;99.90;;;;;;1903803;75;21209;-81
